• Join FlightAware (Why Join?)
  • Login
  • US Flag 
06:38AM EDT


 

Airport Tracker/Info


-or-


 

Live Flight TrackerFlight Track Log ✈ UAL6044 ✈ 22-Apr-2013 ✈ KIAD - KIND

Flight Track Log - Related Links

Times and Time Zones

All times are in EDT time to prevent confusion due to time zone crossing. See the UAL6044 flight status page for this flight to view local times or setup timezone preferences in your user account.

Time Position Orientation Groundspeed Altitude Reporting Facility
EDT Latitude Longitude Course Direction KTS MPH feet Rate Location/Type
12:27PM 38.9500 -77.5667 288° West 201 231 3,100  Level Potomac TRACON
12:28PM 38.9333 -77.6500 256° West 260 299 5,700 2,400 Climbing Potomac TRACON
12:28PM 38.9158 -77.6967 244° Southwest 262 302 6,600 2,940 Climbing Washington Center
12:29PM 38.8830 -77.8022 260° West  Level FlightAware Approximate
12:29PM 38.9022 -77.7656 256° West 281 323 9,700  Level Washington Center
12:30PM 38.8689 -77.9233 293° West  Level FlightAware Approximate
12:30PM 38.9061 -77.8831 272° West 282 325 11,000  Level Washington Center
12:31PM 38.9016 -78.0395 288° West  Level FlightAware Approximate
12:31PM 38.9164 -78.0033 276° West 317 365 12,600  Level Washington Center
12:32PM 38.9310 -78.1573 288° West  Level FlightAware Approximate
12:32PM 38.9264 -78.1292 276° West 344 396 14,600  Level Washington Center
12:33PM 38.9361 -78.2469 276° West 344 396 16,900 1,680 Climbing Washington Center
12:34PM 38.9442 -78.3619 275° West 344 396 18,000 1,320 Climbing Washington Center
12:35PM 38.9536 -78.4878 276° West 350 403 19,600 1,500 Climbing Washington Center
12:36PM 38.9631 -78.6136 276° West 355 409 21,100 1,440 Climbing Washington Center
12:37PM 38.9722 -78.7394 275° West 355 409 22,600 1,320 Climbing Washington Center
12:38PM 38.9800 -78.8414 276° West 355 409 23,800 1,320 Climbing Washington Center
12:39PM 38.9847 -78.9697 273° West 360 414 25,300 1,560 Climbing Washington Center
12:40PM 38.9869 -79.1169 271° West 360 414 27,000 1,320 Climbing Washington Center
12:41PM 38.9892 -79.2450 271° West 360 414 28,000 960 Climbing Washington Center
12:42PM 38.9936 -79.3761 273° West 360 414 29,000 900 Climbing Washington Center
12:43PM 38.9978 -79.5072 272° West 366 421 29,900 480 Climbing Washington Center
12:44PM 38.9992 -79.6489 271° West 379 436 30,000  Climbing Washington Center
12:45PM 39.0006 -79.7933 271° West 393 452 30,000  Level Washington Center
12:46PM 39.0042 -79.9272 272° West 417 480 30,000  Level Washington Center
12:47PM 39.0069 -80.0769 271° West 422 486 30,000  Level Washington Center
12:48PM 39.0044 -80.1653 268° West 415 478 30,000  Level Indianapolis Center
12:49PM 39.0078 -80.3150 272° West 419 482 30,000  Level Indianapolis Center
12:50PM 39.0378 -80.4597 285° West 420 483 30,000  Level Indianapolis Center
12:51PM 39.0761 -80.6028 289° West 424 488 30,000  Level Indianapolis Center
12:52PM 39.1144 -80.7469 289° West 427 491 30,000  Level Indianapolis Center
12:53PM 39.1525 -80.8897 289° West 425 489 30,000  Level Indianapolis Center
12:54PM 39.1983 -81.0611 289° West 424 488 30,000  Level Indianapolis Center
12:55PM 39.2356 -81.2042 289° West 424 488 30,000  Level Indianapolis Center
12:56PM 39.2719 -81.3475 288° West 423 487 30,000  Level Indianapolis Center
12:57PM 39.3092 -81.4903 289° West 422 486 30,000  Level Indianapolis Center
12:58PM 39.3461 -81.6342 288° West 424 488 30,000  Level Indianapolis Center
12:59PM 39.3894 -81.8075 288° West 424 488 30,000  Level Indianapolis Center
01:00PM 39.4272 -81.9511 289° West 424 488 30,000  Level Indianapolis Center
01:01PM 39.4633 -82.0958 288° West 424 488 30,000  Level Indianapolis Center
01:02PM 39.4989 -82.2400 288° West 424 488 30,000  Level Indianapolis Center
01:03PM 39.5353 -82.3853 288° West 423 487 30,000  Level Indianapolis Center
01:05PM 39.5722 -82.5322 288° West 425 489 30,000  Level Indianapolis Center
01:06PM 39.6144 -82.7044 288° West 426 490 30,000  Level Indianapolis Center
01:07PM 39.6508 -82.8525 288° West 428 493 30,000  Level Indianapolis Center
01:08PM 39.6867 -83.0000 288° West 426 490 30,000  Level Indianapolis Center
01:09PM 39.7228 -83.1483 288° West 427 491 30,000  Level Indianapolis Center
01:10PM 39.7581 -83.2972 287° West 427 491 30,000  Level Indianapolis Center
01:11PM 39.7931 -83.4411 288° West 430 495 30,000  Level Indianapolis Center
01:12PM 39.8414 -83.5831 294° West 437 503 30,000  Level Indianapolis Center
01:13PM 39.9022 -83.7406 297° West 429 494 30,000  Level Indianapolis Center
01:14PM 39.9578 -83.8822 297° West 434 499 30,000  Level Indianapolis Center
01:15PM 40.0122 -84.0228 297° West 430 495 30,000 -300 Level Indianapolis Center
01:16PM 40.0681 -84.1625 298° West 430 495 29,400 -960 Descending Indianapolis Center
01:17PM 40.1081 -84.3372 287° West 428 493 28,100 -1,380 Descending Indianapolis Center
01:18PM 40.1258 -84.4950 278° West 434 499 26,600 -1,500 Descending Indianapolis Center
01:19PM 40.1436 -84.6497 279° West 432 497 25,000 -1,620 Descending Indianapolis Center
01:20PM 40.1367 -84.7997 267° West 411 473 23,300 -1,680 Descending Indianapolis Center
01:21PM 40.1317 -84.9456 267° West 402 463 21,600 -1,800 Descending Indianapolis Center
01:22PM 40.1247 -85.0900 266° West 397 457 19,700 -1,920 Descending Indianapolis Center
01:23PM 40.1203 -85.2331 268° West 393 452 17,700 -1,920 Descending Indianapolis Center
01:24PM 40.1136 -85.3675 266° West 376 433 15,800 -2,100 Descending Indianapolis Center
01:25PM 40.1083 -85.5192 267° West 358 412 13,400 -2,040 Descending Indianapolis Center
01:26PM 40.1014 -85.6475 266° West 353 406 11,600 -1,200 Descending Indianapolis Center
01:27PM 40.0742 -85.7700 254° West 357 411 11,000 -300 Descending Indianapolis Center
01:28PM 40.0150 -85.8697 232° Southwest 363 418 11,000  Level Indianapolis Center
01:29PM 39.9303 -85.9536 217° Southwest 349 402 11,000 -120 Level Indianapolis Center
01:30PM 39.8531 -86.0300 217° Southwest 348 400 10,800 -720 Descending Indianapolis Center
01:31PM 39.7881 -86.0897 215° Southwest 306 352 9,600 -1,440 Descending Indianapolis Center
01:32PM 39.7306 -86.1567 222° Southwest 286 329 7,900 -1,740 Descending Indianapolis Center
01:33PM 39.7167 -86.1667 209° Southwest 262 302 7,400 -1,080 Descending Indianapolis TRACON
01:34PM 39.6667 -86.2333 226° Southwest 248 285 6,600 -1,380 Descending Indianapolis TRACON
01:35PM 39.6167 -86.3000 226° Southwest 222 255 4,700 -1,920 Descending Indianapolis TRACON